Time;durP1;ratioP1;P1;durP2;ratioP2;P2;SDS_P1;SDS_P2;PMS_P1;PMS_P2;Temp;Humidity;BMP_temperature;BMP_pressure;BME280_temperature;BME280_humidity;BME280_pressure;Samples;Min_cycle;Max_cycle;Signal;HPM_P1;HPM_P2
2021/09/17 00:00:27;;;;;;;57.53;39.70;;;;;;;16.87;100.00;98645.09;2049163;29;20529;-81
2021/09/17 00:01:28;;;;;;;55.80;40.20;;;;;;;16.88;100.00;98647.44;2049723;29;20269;-80
2021/09/17 00:02:31;;;;;;;54.93;40.27;;;;;;;16.88;100.00;98646.66;2041371;29;21042;-80
2021/09/17 00:03:33;;;;;;;58.67;40.00;;;;;;;16.87;100.00;98648.56;2041684;29;20214;-80
2021/09/17 00:04:35;;;;;;;55.23;41.13;;;;;;;16.89;100.00;98654.41;2041754;29;20440;-81
2021/09/17 00:05:36;;;;;;;63.50;41.10;;;;;;;16.90;100.00;98655.97;2049470;28;21101;-80
2021/09/17 00:06:37;;;;;;;54.47;39.40;;;;;;;16.91;100.00;98651.34;2049663;29;20788;-80
2021/09/17 00:07:38;;;;;;;55.97;40.33;;;;;;;16.90;100.00;98647.88;2058261;28;20178;-81
2021/09/17 00:08:41;;;;;;;53.90;39.47;;;;;;;16.90;100.00;98642.47;2058335;28;20422;-81
2021/09/17 00:09:42;;;;;;;54.47;40.13;;;;;;;16.91;100.00;98645.97;2049468;29;20206;-80
2021/09/17 00:10:44;;;;;;;57.73;38.73;;;;;;;16.93;100.00;98644.47;2049738;29;20529;-80
2021/09/17 00:11:44;;;;;;;56.73;38.20;;;;;;;16.93;100.00;98644.47;2049256;29;20683;-81
2021/09/17 00:12:46;;;;;;;51.37;38.50;;;;;;;16.94;100.00;98640.69;2049782;29;20775;-81
2021/09/17 00:13:47;;;;;;;53.07;39.77;;;;;;;16.95;100.00;98644.16;2049579;29;20206;-81
2021/09/17 00:14:49;;;;;;;52.27;38.17;;;;;;;16.94;100.00;98639.91;2049522;29;20486;-80
2021/09/17 00:15:50;;;;;;;60.70;39.37;;;;;;;16.95;100.00;98646.84;2049550;29;20190;-80
2021/09/17 00:16:52;;;;;;;58.77;39.47;;;;;;;16.96;100.00;98645.72;2049520;29;20453;-80
2021/09/17 00:17:54;;;;;;;55.83;39.20;;;;;;;16.95;100.00;98641.47;2047068;29;20257;-81
2021/09/17 00:18:57;;;;;;;49.33;38.17;;;;;;;16.94;100.00;98640.69;2049470;29;20505;-80
2021/09/17 00:19:57;;;;;;;57.07;39.57;;;;;;;16.97;100.00;98646.50;2049740;28;20182;-80
2021/09/17 00:20:59;;;;;;;53.20;39.30;;;;;;;16.97;100.00;98636.50;2049501;29;20444;-80
2021/09/17 00:21:59;;;;;;;54.90;38.97;;;;;;;16.94;100.00;98639.91;2049466;29;20591;-81
2021/09/17 00:23:02;;;;;;;59.73;39.20;;;;;;;16.99;100.00;98638.84;2049616;29;20525;-80
2021/09/17 00:24:04;;;;;;;51.57;39.20;;;;;;;16.97;100.00;98633.81;2058424;28;20193;-81
2021/09/17 00:25:07;;;;;;;53.63;40.53;;;;;;;16.95;100.00;98631.47;2058344;28;21015;-81
2021/09/17 00:26:08;;;;;;;52.93;39.20;;;;;;;16.95;100.00;98628.75;2058153;28;20429;-80
2021/09/17 00:27:10;;;;;;;54.93;39.17;;;;;;;16.96;100.00;98632.25;2058387;28;20429;-81
2021/09/17 00:28:10;;;;;;;52.03;38.20;;;;;;;16.95;100.00;98631.47;2058097;28;20586;-80
2021/09/17 00:29:12;;;;;;;50.03;38.83;;;;;;;16.95;100.00;98634.16;2057990;28;20429;-80
2021/09/17 00:30:17;;;;;;;53.47;39.70;;;;;;;16.94;100.00;98629.91;2049297;29;20713;-80
2021/09/17 00:31:18;;;;;;;53.90;40.37;;;;;;;16.94;100.00;98629.13;2049086;29;20453;-80
2021/09/17 00:32:19;;;;;;;57.17;38.73;;;;;;;16.96;100.00;98626.84;2041535;29;20443;-80
2021/09/17 00:33:20;;;;;;;58.30;40.43;;;;;;;16.97;100.00;98628.41;2049444;28;20289;-80
2021/09/17 00:34:24;;;;;;;58.73;40.10;;;;;;;16.95;100.00;98625.28;2058048;28;20444;-81
2021/09/17 00:35:25;;;;;;;62.10;41.37;;;;;;;16.95;100.00;98626.06;2049418;29;20190;-80
2021/09/17 00:36:27;;;;;;;53.23;39.87;;;;;;;16.95;100.00;98620.69;2041568;29;20461;-82
2021/09/17 00:37:29;;;;;;;55.90;39.60;;;;;;;16.97;100.00;98622.25;2041694;29;20972;-80
2021/09/17 00:38:31;;;;;;;55.37;39.97;;;;;;;16.94;100.00;98616.41;2049676;28;20467;-80
2021/09/17 00:39:32;;;;;;;52.80;39.50;;;;;;;16.95;100.00;98620.69;2058141;28;20433;-80
2021/09/17 00:40:33;;;;;;;50.83;37.47;;;;;;;16.97;100.00;98622.25;2049294;29;20453;-80
2021/09/17 00:41:34;;;;;;;52.67;40.33;;;;;;;16.96;100.00;98616.06;2049656;28;20201;-80
2021/09/17 00:42:37;;;;;;;50.87;38.27;;;;;;;16.97;100.00;98616.84;2057971;28;20425;-80
2021/09/17 00:43:39;;;;;;;52.07;38.67;;;;;;;16.98;100.00;98613.78;2049015;29;20202;-80
2021/09/17 00:44:41;;;;;;;50.73;40.03;;;;;;;16.96;100.00;98610.69;2049479;28;20452;-80
2021/09/17 00:45:44;;;;;;;50.00;38.47;;;;;;;16.99;100.00;98617.28;2049346;29;20537;-80
2021/09/17 00:46:46;;;;;;;52.37;39.57;;;;;;;16.98;100.00;98608.41;2049963;28;20428;-81
2021/09/17 00:47:46;;;;;;;46.17;36.37;;;;;;;17.00;100.00;98614.22;2049303;29;20810;-80
2021/09/17 00:48:48;;;;;;;46.13;36.93;;;;;;;16.99;100.00;98615.34;2041383;29;20539;-80
2021/09/17 00:49:51;;;;;;;49.57;37.70;;;;;;;16.99;100.00;98614.56;2049413;28;20578;-81
2021/09/17 00:50:52;;;;;;;50.57;38.33;;;;;;;16.99;100.00;98609.97;2049394;29;20489;-81
2021/09/17 00:51:55;;;;;;;52.03;37.83;;;;;;;16.99;100.00;98611.88;2049705;28;20434;-80
2021/09/17 00:52:56;;;;;;;52.37;38.07;;;;;;;16.97;100.00;98611.47;2058058;28;20436;-81
2021/09/17 00:53:58;;;;;;;53.63;38.83;;;;;;;16.99;100.00;98609.19;2049041;29;20482;-80
2021/09/17 00:54:59;;;;;;;52.33;37.47;;;;;;;17.00;100.00;98608.84;2049356;29;20454;-80
2021/09/17 00:56:00;;;;;;;50.90;37.13;;;;;;;16.99;100.00;98609.19;2049566;29;21019;-81
2021/09/17 00:57:02;;;;;;;52.73;38.13;;;;;;;17.00;100.00;98600.75;2057908;28;20197;-81
2021/09/17 00:58:05;;;;;;;55.97;39.67;;;;;;;16.99;100.00;98604.56;2049168;28;20868;-81
2021/09/17 00:59:06;;;;;;;49.10;37.00;;;;;;;16.98;100.00;98594.16;1993033;29;1206261;-81
2021/09/17 01:00:10;;;;;;;49.87;37.43;;;;;;;16.99;100.00;98598.41;2041733;29;20195;-82
2021/09/17 01:01:11;;;;;;;55.67;38.70;;;;;;;16.99;100.00;98593.00;2034103;29;20251;-82
2021/09/17 01:02:12;;;;;;;61.23;39.60;;;;;;;16.97;100.00;98593.38;2033856;29;20596;-82
2021/09/17 01:03:14;;;;;;;53.30;38.90;;;;;;;16.96;100.00;98594.50;2041646;29;20454;-82
2021/09/17 01:04:17;;;;;;;52.40;38.77;;;;;;;16.94;100.00;98586.78;2041740;29;20435;-82
2021/09/17 01:05:21;;;;;;;51.57;37.53;;;;;;;16.95;100.00;98593.72;2041577;29;20482;-82
2021/09/17 01:06:21;;;;;;;50.63;36.53;;;;;;;16.95;100.00;98584.84;2041866;29;20450;-83
2021/09/17 01:07:23;;;;;;;60.50;39.53;;;;;;;16.94;100.00;98575.22;2042129;29;20428;-83
2021/09/17 01:08:24;;;;;;;49.47;38.07;;;;;;;16.96;100.00;98586.41;2042437;29;20281;-83
2021/09/17 01:09:26;;;;;;;52.30;37.73;;;;;;;16.94;100.00;98576.00;2041577;29;20451;-83
2021/09/17 01:10:28;;;;;;;46.43;36.17;;;;;;;16.93;100.00;98565.53;2033355;29;20235;-83
2021/09/17 01:11:28;;;;;;;51.00;36.90;;;;;;;16.93;100.00;98579.78;2033837;29;20456;-84
2021/09/17 01:12:32;;;;;;;55.17;37.50;;;;;;;16.93;100.00;98574.41;2041651;29;21020;-83
2021/09/17 01:13:33;;;;;;;46.33;36.23;;;;;;;16.94;100.00;98570.59;2041792;29;20195;-83
2021/09/17 01:14:36;;;;;;;54.73;37.83;;;;;;;16.93;100.00;98576.31;2033708;29;20448;-83
2021/09/17 01:15:37;;;;;;;59.63;39.47;;;;;;;16.93;100.00;98557.47;2041659;29;20191;-83
2021/09/17 01:16:38;;;;;;;56.30;39.17;;;;;;;16.92;100.00;98562.06;2042268;29;20435;-83
2021/09/17 01:17:40;;;;;;;55.03;39.33;;;;;;;16.93;100.00;98568.25;2041722;29;20217;-82
2021/09/17 01:18:42;;;;;;;52.10;36.83;;;;;;;16.92;100.00;98567.47;2042059;29;20441;-83
2021/09/17 01:19:45;;;;;;;48.30;36.83;;;;;;;16.87;100.00;98559.66;2042196;29;20431;-83
2021/09/17 01:20:48;;;;;;;54.37;36.80;;;;;;;16.89;100.00;98553.91;2042294;29;20452;-82
2021/09/17 01:21:56;;;;;;;54.80;37.83;;;;;;;16.89;100.00;98557.38;2041470;29;20451;-83
2021/09/17 01:22:57;;;;;;;57.13;36.97;;;;;;;16.88;100.00;98553.13;2041998;29;20407;-83
2021/09/17 01:23:58;;;;;;;47.10;36.77;;;;;;;16.88;100.00;98555.81;2042144;29;20446;-83
2021/09/17 01:25:00;;;;;;;52.10;36.40;;;;;;;16.89;100.00;98551.22;2041195;29;20446;-83
2021/09/17 01:26:01;;;;;;;51.87;37.20;;;;;;;16.89;100.00;98551.22;2041543;29;20335;-83
2021/09/17 01:27:03;;;;;;;50.53;37.17;;;;;;;16.86;100.00;98550.00;2041592;29;20468;-82
2021/09/17 01:28:05;;;;;;;53.03;37.27;;;;;;;16.87;100.00;98548.88;2042075;29;20518;-83
2021/09/17 01:29:05;;;;;;;51.77;36.80;;;;;;;16.88;100.00;98546.97;2041384;29;20952;-82
2021/09/17 01:30:09;;;;;;;50.70;36.63;;;;;;;16.88;100.00;98549.66;2041678;29;20438;-82
2021/09/17 01:31:09;;;;;;;48.97;36.67;;;;;;;16.87;100.00;98546.19;2042305;29;20661;-83
2021/09/17 01:32:15;;;;;;;50.27;37.17;;;;;;;16.87;100.00;98538.09;2042073;29;20435;-82
2021/09/17 01:33:18;;;;;;;49.20;36.73;;;;;;;16.87;100.00;98537.31;2041478;29;20191;-82
2021/09/17 01:34:22;;;;;;;52.17;35.90;;;;;;;16.84;100.00;98533.41;2041542;29;20950;-82
2021/09/17 01:35:23;;;;;;;51.03;36.43;;;;;;;16.86;100.00;98538.47;2042102;29;21058;-83
2021/09/17 01:36:25;;;;;;;47.80;36.63;;;;;;;16.87;100.00;98538.09;2042068;29;20457;-82
2021/09/17 01:37:27;;;;;;;53.30;36.93;;;;;;;16.85;100.00;98537.69;2042254;29;20497;-83
2021/09/17 01:38:30;;;;;;;56.57;36.57;;;;;;;16.82;100.00;98529.50;2041085;29;20446;-83
2021/09/17 01:39:32;;;;;;;49.83;36.27;;;;;;;16.84;100.00;98536.09;2033979;29;20467;-83
2021/09/17 01:40:34;;;;;;;46.40;35.97;;;;;;;16.81;100.00;98528.72;2033710;29;20475;-83
2021/09/17 01:41:35;;;;;;;49.00;36.50;;;;;;;16.86;100.00;98535.75;2033709;29;20535;-83
2021/09/17 01:42:37;;;;;;;53.63;36.37;;;;;;;16.86;100.00;98530.38;2041587;29;20439;-83
2021/09/17 01:43:38;;;;;;;45.17;35.40;;;;;;;16.84;100.00;98533.41;2042210;29;20191;-83
2021/09/17 01:44:40;;;;;;;51.43;36.40;;;;;;;16.85;100.00;98534.97;2041293;29;20471;-82
2021/09/17 01:45:41;;;;;;;47.33;37.20;;;;;;;16.86;100.00;98525.75;2034017;29;20271;-83
2021/09/17 01:46:43;;;;;;;47.73;35.47;;;;;;;16.86;100.00;98533.84;2041455;29;20536;-83
2021/09/17 01:47:46;;;;;;;45.33;36.53;;;;;;;16.86;100.00;98535.75;2041501;29;20199;-83
2021/09/17 01:48:47;;;;;;;48.53;35.70;;;;;;;16.85;100.00;98526.91;2041842;29;20449;-83
2021/09/17 01:49:49;;;;;;;49.70;36.70;;;;;;;16.84;100.00;98527.22;2041226;29;20435;-83
2021/09/17 01:50:50;;;;;;;49.63;37.17;;;;;;;16.86;100.00;98528.47;2041557;29;20207;-83
2021/09/17 01:51:53;;;;;;;49.33;36.23;;;;;;;16.86;100.00;98527.69;2042024;29;20438;-83
2021/09/17 01:52:55;;;;;;;48.63;36.10;;;;;;;16.86;100.00;98525.75;2041260;29;20198;-83
2021/09/17 01:53:59;;;;;;;49.17;35.33;;;;;;;16.86;100.00;98530.38;2041426;29;20975;-83
2021/09/17 01:55:00;;;;;;;47.20;34.00;;;;;;;16.82;100.00;98519.50;2041231;29;20454;-83
2021/09/17 01:56:02;;;;;;;49.30;34.80;;;;;;;16.86;100.00;98523.06;2033545;29;20440;-83
2021/09/17 01:57:03;;;;;;;52.43;35.20;;;;;;;16.86;100.00;98522.28;2041400;29;20210;-83
2021/09/17 01:58:05;;;;;;;47.43;35.83;;;;;;;16.83;100.00;98523.75;2041106;29;20539;-83
2021/09/17 01:59:06;;;;;;;47.90;34.40;;;;;;;16.86;100.00;98520.38;2047399;29;20481;-83
2021/09/17 02:00:10;;;;;;;45.33;33.53;;;;;;;16.87;100.00;98521.94;2049202;29;20464;-83
2021/09/17 02:01:12;;;;;;;45.30;34.40;;;;;;;16.87;100.00;98516.53;2049344;29;20692;-83
2021/09/17 02:02:14;;;;;;;54.47;36.10;;;;;;;16.88;100.00;98515.41;2049823;29;20440;-83
2021/09/17 02:03:14;;;;;;;49.70;35.80;;;;;;;16.89;100.00;98525.06;2050142;29;20493;-83
2021/09/17 02:04:17;;;;;;;55.00;35.77;;;;;;;16.88;100.00;98514.63;2049947;29;20442;-82
2021/09/17 02:05:19;;;;;;;45.80;33.13;;;;;;;16.88;100.00;98517.31;2049207;29;20198;-83
2021/09/17 02:06:23;;;;;;;43.27;34.20;;;;;;;16.88;100.00;98520.78;2049378;29;20572;-83
2021/09/17 02:07:25;;;;;;;49.50;34.80;;;;;;;16.88;100.00;98512.72;2049918;29;20509;-83
2021/09/17 02:08:27;;;;;;;46.07;35.13;;;;;;;16.89;100.00;98514.28;2049833;29;20529;-83
2021/09/17 02:09:29;;;;;;;47.40;35.07;;;;;;;16.89;100.00;98510.81;2049228;29;20434;-83
2021/09/17 02:10:30;;;;;;;47.13;34.50;;;;;;;16.89;100.00;98508.88;2049072;29;20960;-83
2021/09/17 02:11:31;;;;;;;48.17;35.10;;;;;;;16.90;100.00;98507.75;2041281;29;20803;-83
2021/09/17 02:12:33;;;;;;;51.60;34.70;;;;;;;16.90;100.00;98501.56;2049251;29;20695;-82
2021/09/17 02:13:35;;;;;;;45.07;35.37;;;;;;;16.91;100.00;98511.22;2049165;29;20446;-83
2021/09/17 02:14:38;;;;;;;45.00;35.27;;;;;;;16.91;100.00;98511.22;2041293;29;20506;-83
2021/09/17 02:15:40;;;;;;;48.90;35.57;;;;;;;16.90;100.00;98505.06;2041528;29;20983;-83
2021/09/17 02:16:41;;;;;;;47.33;35.43;;;;;;;16.91;100.00;98503.91;2041239;29;20477;-83
2021/09/17 02:17:42;;;;;;;45.47;35.07;;;;;;;16.90;100.00;98505.06;2049360;29;20793;-83
2021/09/17 02:18:43;;;;;;;44.37;33.87;;;;;;;16.89;100.00;98503.50;2049679;29;20435;-83
2021/09/17 02:19:45;;;;;;;46.27;36.00;;;;;;;16.90;100.00;98502.34;2049107;29;20456;-83
2021/09/17 02:20:47;;;;;;;46.03;34.77;;;;;;;16.91;100.00;98503.91;2049252;29;20552;-83
2021/09/17 02:21:50;;;;;;;46.43;34.00;;;;;;;16.92;100.00;98504.69;2048611;29;20453;-83
2021/09/17 02:22:51;;;;;;;41.03;33.67;;;;;;;16.91;100.00;98498.53;2041263;29;20457;-83
2021/09/17 02:23:53;;;;;;;59.67;37.33;;;;;;;17.00;100.00;98503.72;2049188;29;20426;-82
2021/09/17 02:24:55;;;;;;;49.87;36.90;;;;;;;17.01;100.00;98491.03;2049805;29;21005;-83
2021/09/17 02:25:56;;;;;;;47.60;35.67;;;;;;;16.97;100.00;98487.50;2049080;29;20976;-83
2021/09/17 02:26:58;;;;;;;47.97;36.37;;;;;;;17.00;100.00;98497.56;2049215;29;20819;-83
2021/09/17 02:27:59;;;;;;;63.50;39.13;;;;;;;17.00;100.00;98494.84;2049791;28;20576;-83
2021/09/17 02:29:01;;;;;;;51.17;37.10;;;;;;;17.00;100.00;98502.94;2050033;28;20477;-83
2021/09/17 02:30:02;;;;;;;49.70;35.93;;;;;;;17.01;100.00;98493.72;2050467;29;20212;-83
2021/09/17 02:31:04;;;;;;;49.83;35.27;;;;;;;17.03;100.00;98496.84;2051301;29;21068;-83
2021/09/17 02:32:05;;;;;;;44.93;34.97;;;;;;;17.04;100.00;98488.44;2051333;29;20940;-83
2021/09/17 02:33:07;;;;;;;44.03;35.00;;;;;;;17.05;100.00;98494.59;2051386;28;20430;-83
2021/09/17 02:34:11;;;;;;;50.13;35.40;;;;;;;17.05;100.00;98489.22;2051284;29;20537;-83
2021/09/17 02:35:16;;;;;;;45.90;34.83;;;;;;;17.12;100.00;98489.38;2051477;29;20865;-83
2021/09/17 02:36:16;;;;;;;45.90;35.93;;;;;;;17.16;100.00;98485.59;2050619;29;20449;-83
2021/09/17 02:37:18;;;;;;;44.40;35.17;;;;;;;17.12;100.00;98481.28;2050650;29;20449;-83
2021/09/17 02:38:20;;;;;;;45.93;34.27;;;;;;;17.34;100.00;98485.19;2050766;29;20665;-83
2021/09/17 02:39:23;;;;;;;54.83;35.33;;;;;;;17.52;100.00;98476.31;2051346;29;20433;-83
2021/09/17 02:40:25;;;;;;;45.70;34.73;;;;;;;17.51;100.00;98466.66;2050612;29;20894;-83
2021/09/17 02:41:29;;;;;;;40.63;33.93;;;;;;;17.48;100.00;98459.28;2050682;29;20501;-83
2021/09/17 02:42:30;;;;;;;44.43;35.00;;;;;;;17.35;100.00;98460.56;2043076;29;20980;-83
2021/09/17 02:43:31;;;;;;;41.17;33.40;;;;;;;17.30;100.00;98447.38;2050927;29;20501;-83
2021/09/17 02:44:32;;;;;;;44.30;35.17;;;;;;;17.29;100.00;98453.09;2051369;28;20225;-83
2021/09/17 02:45:34;;;;;;;43.57;34.57;;;;;;;17.31;100.00;98453.53;2051373;29;20437;-82
2021/09/17 02:46:34;;;;;;;41.57;34.37;;;;;;;17.37;100.00;98455.56;2050525;29;20202;-83
2021/09/17 02:47:37;;;;;;;42.00;35.60;;;;;;;17.29;100.00;98453.91;2050789;29;20444;-83
2021/09/17 02:48:38;;;;;;;41.87;34.13;;;;;;;17.21;100.00;98454.88;2050541;29;20198;-83
2021/09/17 02:49:40;;;;;;;40.97;34.03;;;;;;;17.27;100.00;98449.97;2050824;29;20418;-83
2021/09/17 02:50:40;;;;;;;45.07;36.20;;;;;;;17.22;100.00;98449.13;2050446;29;20202;-83
2021/09/17 02:51:42;;;;;;;45.53;35.70;;;;;;;17.17;100.00;98454.03;2042665;29;20445;-83
2021/09/17 02:52:43;;;;;;;44.63;35.90;;;;;;;17.21;100.00;98454.88;2042684;29;20206;-83
2021/09/17 02:53:44;;;;;;;42.20;34.87;;;;;;;17.18;100.00;98450.19;2042654;29;20554;-83
2021/09/17 02:54:47;;;;;;;42.20;34.73;;;;;;;17.17;100.00;98448.63;2050727;29;20206;-83
2021/09/17 02:55:49;;;;;;;41.37;34.80;;;;;;;17.15;100.00;98445.50;2050608;29;20446;-83
2021/09/17 02:56:50;;;;;;;43.60;35.13;;;;;;;17.15;100.00;98445.50;2042402;29;20450;-83
2021/09/17 02:57:52;;;;;;;44.83;36.03;;;;;;;17.19;100.00;98446.34;2050538;28;20449;-83
2021/09/17 02:58:53;;;;;;;40.97;35.27;;;;;;;17.22;100.00;98440.28;2042617;29;20502;-82
2021/09/17 02:59:55;;;;;;;43.03;34.90;;;;;;;17.21;100.00;98441.41;2042890;29;20449;-83
2021/09/17 03:00:55;;;;;;;44.80;35.87;;;;;;;17.36;100.00;98432.44;2050197;28;20226;-83
2021/09/17 03:01:57;;;;;;;42.60;34.77;;;;;;;17.27;100.00;98436.50;2050478;29;20971;-83
2021/09/17 03:02:59;;;;;;;43.63;35.70;;;;;;;17.30;100.00;98431.19;2050514;29;20314;-83
2021/09/17 03:04:01;;;;;;;43.10;35.83;;;;;;;17.25;100.00;98436.84;2042828;29;20447;-83
2021/09/17 03:05:03;;;;;;;43.43;35.93;;;;;;;17.22;100.00;98427.56;2050557;29;20513;-83
2021/09/17 03:06:04;;;;;;;41.47;34.73;;;;;;;17.23;100.00;98431.03;2051116;29;20477;-82
2021/09/17 03:07:05;;;;;;;46.20;35.07;;;;;;;17.15;100.00;98434.72;2051323;29;20445;-83
2021/09/17 03:08:07;;;;;;;43.27;35.00;;;;;;;17.32;100.00;98430.84;2051112;29;20525;-82
2021/09/17 03:09:10;;;;;;;47.20;35.77;;;;;;;17.36;100.00;98429.75;2051114;29;20202;-82
2021/09/17 03:10:14;;;;;;;43.10;35.93;;;;;;;17.31;100.00;98430.06;2050078;29;20434;-83
2021/09/17 03:11:15;;;;;;;43.80;35.83;;;;;;;17.43;100.00;98424.50;2050640;29;20480;-82
2021/09/17 03:12:16;;;;;;;43.40;35.90;;;;;;;17.46;100.00;98425.69;2050363;29;20552;-82
2021/09/17 03:13:17;;;;;;;42.33;35.37;;;;;;;17.41;100.00;98426.78;2042428;29;20210;-83
2021/09/17 03:14:18;;;;;;;42.70;36.07;;;;;;;17.52;100.00;98421.56;2042430;29;20537;-82
2021/09/17 03:15:21;;;;;;;43.67;35.37;;;;;;;17.35;100.00;98422.78;2042527;29;20213;-83
2021/09/17 03:16:24;;;;;;;43.30;35.73;;;;;;;17.39;100.00;98415.56;2050516;29;20454;-84
2021/09/17 03:17:24;;;;;;;43.63;35.63;;;;;;;17.32;100.00;98415.44;2051236;28;20430;-83
2021/09/17 03:18:26;;;;;;;45.13;34.83;;;;;;;17.32;100.00;98422.75;2050353;29;20460;-83
2021/09/17 03:19:26;;;;;;;45.50;36.67;;;;;;;17.41;100.00;98413.28;2042384;29;20206;-83
2021/09/17 03:20:28;;;;;;;44.80;35.90;;;;;;;17.33;100.00;98414.28;2050048;29;20453;-82
2021/09/17 03:21:30;;;;;;;45.07;35.27;;;;;;;17.32;100.00;98407.34;2050658;29;20273;-82
2021/09/17 03:22:32;;;;;;;42.40;35.40;;;;;;;17.32;100.00;98414.66;2051056;28;20936;-82
2021/09/17 03:23:34;;;;;;;41.87;35.43;;;;;;;17.31;100.00;98416.56;2051199;29;20194;-82
2021/09/17 03:24:35;;;;;;;46.30;36.30;;;;;;;17.33;100.00;98413.50;2050297;29;20442;-82
2021/09/17 03:25:37;;;;;;;42.90;34.83;;;;;;;17.39;100.00;98417.50;2042443;29;21031;-82
2021/09/17 03:26:39;;;;;;;43.90;34.93;;;;;;;17.32;100.00;98403.88;2050438;29;20808;-82
2021/09/17 03:27:40;;;;;;;45.97;37.13;;;;;;;17.34;100.00;98410.44;2051030;29;20438;-82
2021/09/17 03:28:42;;;;;;;49.33;35.57;;;;;;;17.29;100.00;98413.47;2050948;29;20430;-82
2021/09/17 03:29:44;;;;;;;44.67;35.40;;;;;;;17.20;100.00;98415.56;2050276;29;20198;-81
2021/09/17 03:30:46;;;;;;;46.10;35.57;;;;;;;17.16;100.00;98407.41;2050268;29;20502;-81
2021/09/17 03:31:47;;;;;;;47.67;36.70;;;;;;;17.16;100.00;98402.03;2049841;29;20541;-81
2021/09/17 03:32:49;;;;;;;46.77;36.57;;;;;;;17.18;100.00;98407.06;2050274;29;20438;-81
2021/09/17 03:33:50;;;;;;;45.23;35.83;;;;;;;17.16;100.00;98415.50;2050322;29;20278;-81
2021/09/17 03:34:51;;;;;;;46.77;36.77;;;;;;;17.11;100.00;98413.06;2050907;28;20437;-81
2021/09/17 03:35:52;;;;;;;47.53;37.77;;;;;;;17.02;100.00;98407.13;2051002;29;20222;-81
2021/09/17 03:36:55;;;;;;;49.37;37.13;;;;;;;17.04;100.00;98420.25;2050194;29;20968;-81
2021/09/17 03:37:56;;;;;;;47.70;37.47;;;;;;;16.93;100.00;98415.41;2050417;29;20194;-81
2021/09/17 03:38:58;;;;;;;49.47;37.07;;;;;;;16.86;100.00;98420.69;2050213;29;20444;-81
2021/09/17 03:39:58;;;;;;;50.70;37.30;;;;;;;16.86;100.00;98420.69;2050284;29;20206;-81
2021/09/17 03:41:01;;;;;;;51.93;38.33;;;;;;;16.77;100.00;98416.63;2050478;28;20431;-81
2021/09/17 03:42:02;;;;;;;51.67;39.07;;;;;;;16.86;100.00;98426.06;2050196;29;20740;-81
2021/09/17 03:43:05;;;;;;;50.70;41.47;;;;;;;16.76;100.00;98428.50;2050338;29;20824;-80
2021/09/17 03:44:07;;;;;;;51.20;42.20;;;;;;;16.87;100.00;98429.53;2050855;28;20187;-80
2021/09/17 03:45:09;;;;;;;54.27;43.67;;;;;;;16.77;100.00;98425.50;2050835;29;20433;-80
2021/09/17 03:46:10;;;;;;;53.67;42.27;;;;;;;16.74;100.00;98431.56;2049794;29;20209;-80
2021/09/17 03:47:11;;;;;;;60.00;46.23;;;;;;;16.71;100.00;98429.56;2050435;29;20529;-80
2021/09/17 03:48:14;;;;;;;58.10;46.43;;;;;;;16.60;100.00;98426.63;2050856;28;20311;-80
2021/09/17 03:49:16;;;;;;;59.37;45.73;;;;;;;16.57;100.00;98431.91;2050801;29;20469;-80
2021/09/17 03:50:16;;;;;;;61.63;43.07;;;;;;;16.54;100.00;98427.25;2050094;29;20527;-79
2021/09/17 03:51:20;;;;;;;61.70;43.57;;;;;;;16.53;100.00;98428.38;2042146;29;20478;-80
2021/09/17 03:52:20;;;;;;;61.40;44.63;;;;;;;16.56;100.00;98424.97;2050213;29;20202;-80
2021/09/17 03:53:22;;;;;;;61.67;44.13;;;;;;;16.66;100.00;98427.91;2050766;29;20517;-80
2021/09/17 03:54:26;;;;;;;58.03;44.00;;;;;;;16.58;100.00;98431.56;2050734;29;20282;-80
2021/09/17 03:55:28;;;;;;;68.43;47.73;;;;;;;16.51;100.00;98434.13;2050955;29;20445;-75
2021/09/17 03:56:30;;;;;;;63.07;46.27;;;;;;;16.46;100.00;98429.00;2049714;29;20553;-75
2021/09/17 03:57:33;;;;;;;60.97;46.10;;;;;;;16.57;100.00;98431.91;2041804;29;20443;-75
2021/09/17 03:58:35;;;;;;;63.67;46.23;;;;;;;16.55;100.00;98428.81;2049869;28;20553;-75
2021/09/17 03:59:37;;;;;;;70.80;47.97;;;;;;;16.54;100.00;98436.09;2050058;29;20517;-75
2021/09/17 04:00:38;;;;;;;65.33;47.87;;;;;;;16.55;100.00;98424.19;2050034;29;20457;-75
2021/09/17 04:01:40;;;;;;;64.73;47.43;;;;;;;16.55;100.00;98442.25;2050136;29;20430;-75
2021/09/17 04:02:41;;;;;;;64.40;47.77;;;;;;;16.44;100.00;98427.78;2050674;29;20461;-75
2021/09/17 04:03:42;;;;;;;68.43;49.07;;;;;;;16.39;100.00;98440.38;2050708;28;20450;-76
2021/09/17 04:04:43;;;;;;;59.90;46.77;;;;;;;16.43;100.00;98435.09;2050007;29;20203;-75
2021/09/17 04:05:46;;;;;;;66.30;47.17;;;;;;;16.46;100.00;98436.28;2049841;29;20450;-75
2021/09/17 04:06:48;;;;;;;59.63;44.17;;;;;;;16.46;100.00;98433.59;2050260;29;20170;-75
2021/09/17 04:07:49;;;;;;;65.40;47.27;;;;;;;16.56;100.00;98435.75;2050678;28;20770;-75
2021/09/17 04:08:50;;;;;;;59.80;44.15;;;;;;;16.58;100.00;98436.16;2050629;29;20512;-74
2021/09/17 04:09:51;;;;;;;59.67;44.33;;;;;;;16.52;100.00;98440.28;2050683;28;20182;-75
2021/09/17 04:10:52;;;;;;;62.92;44.35;;;;;;;16.40;100.00;98438.47;2050788;29;20576;-75
2021/09/17 04:11:56;;;;;;;59.93;44.07;;;;;;;16.30;100.00;98431.69;2050609;28;20244;-75
2021/09/17 04:12:57;;;;;;;62.25;43.70;;;;;;;16.27;100.00;98432.41;2050711;29;20245;-75
2021/09/17 04:13:59;;;;;;;63.73;45.97;;;;;;;16.19;100.00;98436.06;2050725;29;20246;-74
2021/09/17 04:14:59;;;;;;;62.13;44.70;;;;;;;16.26;100.00;98438.91;2050600;29;20187;-75
2021/09/17 04:16:01;;;;;;;65.10;43.43;;;;;;;16.28;100.00;98435.88;2050630;28;20201;-74
2021/09/17 04:17:02;;;;;;;64.22;45.20;;;;;;;16.29;100.00;98446.28;2049919;29;20230;-75
2021/09/17 04:18:05;;;;;;;67.17;43.50;;;;;;;16.24;100.00;98441.16;2050005;29;20190;-75
2021/09/17 04:19:06;;;;;;;62.80;42.30;;;;;;;16.27;100.00;98450.47;2050605;28;20660;-75
2021/09/17 04:20:09;;;;;;;62.57;43.93;;;;;;;16.26;100.00;98440.84;2050524;29;20598;-75
2021/09/17 04:21:10;;;;;;;62.20;43.85;;;;;;;16.17;100.00;98442.91;2050749;28;20197;-75
2021/09/17 04:22:12;;;;;;;62.10;44.00;;;;;;;16.11;100.00;98447.78;2050571;28;20199;-75
2021/09/17 04:23:12;;;;;;;60.10;42.03;;;;;;;16.10;100.00;98462.34;2050634;29;20198;-75
2021/09/17 04:24:14;;;;;;;51.57;40.23;;;;;;;16.14;100.00;98446.28;2050429;29;20191;-75
2021/09/17 04:25:15;;;;;;;52.88;41.35;;;;;;;16.19;100.00;98454.09;2049489;29;20206;-75
2021/09/17 04:26:17;;;;;;;50.40;37.35;;;;;;;16.08;100.00;98453.84;2041970;29;20202;-75
2021/09/17 04:27:19;;;;;;;41.97;34.70;;;;;;;15.95;100.00;98455.81;2049952;29;20198;-75
2021/09/17 04:28:21;;;;;;;38.40;33.20;;;;;;;15.82;100.00;98452.44;2050738;29;20214;-75
2021/09/17 04:29:21;;;;;;;42.40;33.50;;;;;;;15.61;100.00;98433.03;2050440;29;20241;-75
2021/09/17 04:30:23;;;;;;;35.77;30.57;;;;;;;15.44;100.00;98433.31;2049744;29;20198;-75
2021/09/17 04:31:23;;;;;;;35.13;31.35;;;;;;;15.34;100.00;98441.88;2049801;29;20233;-75
2021/09/17 04:32:29;;;;;;;37.70;31.07;;;;;;;15.25;100.00;98434.75;2050461;28;20205;-75
2021/09/17 04:33:31;;;;;;;37.13;31.05;;;;;;;15.19;100.00;98436.09;2050529;29;20209;-75
2021/09/17 04:34:32;;;;;;;38.13;32.20;;;;;;;15.22;100.00;98438.13;2050423;29;20542;-75
2021/09/17 04:35:34;;;;;;;38.53;33.47;;;;;;;15.07;100.00;98440.75;2050444;28;20293;-75
2021/09/17 04:36:34;;;;;;;33.90;30.45;;;;;;;15.06;100.00;98442.66;2050722;29;20210;-75
2021/09/17 04:37:39;;;;;;;34.30;30.73;;;;;;;14.99;100.00;98453.19;2050466;28;20194;-75
2021/09/17 04:38:40;;;;;;;35.88;31.88;;;;;;;14.84;100.00;98435.09;2049320;29;20202;-75
2021/09/17 04:39:42;;;;;;;35.77;31.97;;;;;;;14.85;100.00;98442.78;2041836;29;20242;-75
2021/09/17 04:40:44;;;;;;;34.33;30.80;;;;;;;14.77;100.00;98443.72;2049799;29;20283;-75